Time;durP1;ratioP1;P1;durP2;ratioP2;P2;SDS_P1;SDS_P2;PMS_P1;PMS_P2;Temp;Humidity;BMP_temperature;BMP_pressure;BME280_temperature;BME280_humidity;BME280_pressure;Samples;Min_cycle;Max_cycle;Signal;HPM_P1;HPM_P2
2022/01/01 00:20:29;;;;;;;66.30;21.87;;;9.90;99.90;;;;;;6137026;22;1279498;-81
2022/01/01 00:22:56;;;;;;;51.17;19.43;;;9.90;99.90;;;;;;6183850;23;20178;-80
2022/01/01 00:25:23;;;;;;;44.93;18.63;;;9.80;99.90;;;;;;6185086;23;20185;-80
2022/01/01 00:27:50;;;;;;;53.37;21.63;;;9.80;99.90;;;;;;6185954;23;20178;-80
2022/01/01 00:30:16;;;;;;;54.60;20.73;;;9.80;99.90;;;;;;6184202;23;20170;-81
2022/01/01 00:32:43;;;;;;;42.43;20.23;;;9.80;99.90;;;;;;6179086;23;20182;-81
2022/01/01 00:35:10;;;;;;;35.13;17.60;;;9.70;99.90;;;;;;6179933;23;20174;-81
2022/01/01 00:37:38;;;;;;;31.13;15.57;;;9.70;99.90;;;;;;6178749;23;20185;-83
2022/01/01 00:40:06;;;;;;;39.90;16.40;;;9.70;99.90;;;;;;6180388;23;20195;-82
2022/01/01 00:42:33;;;;;;;38.23;15.97;;;9.70;99.90;;;;;;6181526;23;20189;-85
2022/01/01 00:45:00;;;;;;;36.40;16.50;;;9.70;99.90;;;;;;6182404;23;20238;-82
2022/01/01 00:47:26;;;;;;;32.07;14.67;;;9.70;99.90;;;;;;6182046;23;20163;-83
2022/01/01 00:49:53;;;;;;;25.33;12.80;;;9.70;99.90;;;;;;6178971;23;20174;-83
2022/01/01 00:52:20;;;;;;;26.73;11.80;;;9.70;99.90;;;;;;6178745;23;20175;-80
2022/01/01 00:54:48;;;;;;;24.43;11.17;;;9.70;99.90;;;;;;6178296;23;20178;-81
2022/01/01 00:57:15;;;;;;;35.80;14.03;;;9.70;99.90;;;;;;6179843;23;20171;-81
2022/01/01 00:59:42;;;;;;;30.03;11.70;;;9.70;99.90;;;;;;6178344;23;20201;-82
2022/01/01 01:02:09;;;;;;;41.43;13.47;;;9.70;99.90;;;;;;6179015;23;20191;-81
2022/01/01 01:04:35;;;;;;;43.07;16.27;;;9.70;99.90;;;;;;6183186;23;20184;-84
2022/01/01 01:07:02;;;;;;;38.73;17.10;;;9.80;99.90;;;;;;6181508;23;20189;-82
2022/01/01 01:09:29;;;;;;;43.10;18.57;;;9.80;99.90;;;;;;6179068;23;20195;-84
2022/01/01 01:11:57;;;;;;;33.10;15.63;;;9.90;99.90;;;;;;6178972;23;20755;-82
2022/01/01 01:14:26;;;;;;;36.60;14.77;;;9.90;99.90;;;;;;6165141;23;20199;-82
2022/01/01 01:16:54;;;;;;;33.50;15.47;;;9.90;99.90;;;;;;6149963;23;20203;-85
2022/01/01 01:19:21;;;;;;;37.17;16.23;;;9.90;99.90;;;;;;6150078;23;20214;-81
2022/01/01 01:21:49;;;;;;;34.20;14.30;;;10.00;99.90;;;;;;6151032;23;20175;-82
2022/01/01 01:24:17;;;;;;;31.70;15.10;;;10.00;99.90;;;;;;6150774;23;20183;-84
2022/01/01 01:26:48;;;;;;;40.53;18.40;;;10.00;99.90;;;;;;6149714;23;20172;-81
2022/01/01 01:29:17;;;;;;;35.57;17.83;;;10.00;99.90;;;;;;6151659;23;20164;-81
2022/01/01 01:31:44;;;;;;;31.50;15.80;;;10.00;99.90;;;;;;6150395;23;20172;-81
2022/01/01 01:34:11;;;;;;;42.33;17.60;;;10.00;99.90;;;;;;6150241;23;20179;-83
2022/01/01 01:36:38;;;;;;;35.20;17.83;;;10.00;99.90;;;;;;6150269;23;20187;-83
2022/01/01 01:39:05;;;;;;;46.33;18.03;;;10.00;99.90;;;;;;6151186;23;20195;-85
2022/01/01 01:41:32;;;;;;;38.50;16.07;;;10.10;99.90;;;;;;6150748;23;20171;-87
2022/01/01 01:44:02;;;;;;;38.53;15.90;;;10.20;99.90;;;;;;6150969;23;20175;-85
2022/01/01 01:46:30;;;;;;;33.50;12.97;;;10.20;99.90;;;;;;6151950;23;20171;-82
2022/01/01 01:48:57;;;;;;;27.93;13.07;;;10.20;99.90;;;;;;6151196;23;20565;-81
2022/01/01 01:51:24;;;;;;;35.33;13.77;;;10.20;99.90;;;;;;6151498;23;20168;-83
2022/01/01 01:53:51;;;;;;;34.60;14.53;;;10.20;99.90;;;;;;6151906;23;20171;-82
2022/01/01 01:56:18;;;;;;;32.23;15.33;;;10.20;99.90;;;;;;6151387;23;20187;-86
2022/01/01 01:58:45;;;;;;;31.13;16.27;;;10.20;99.90;;;;;;6151105;23;20182;-84
2022/01/01 02:01:20;;;;;;;31.43;15.90;;;10.20;99.90;;;;;;6149587;23;20211;-85
2022/01/01 02:03:49;;;;;;;36.73;15.97;;;10.20;99.90;;;;;;6149672;23;20226;-84
2022/01/01 02:06:16;;;;;;;39.07;16.77;;;10.20;99.90;;;;;;6151925;23;20186;-80
2022/01/01 02:08:44;;;;;;;39.00;18.30;;;10.20;99.90;;;;;;6150963;23;20167;-84
2022/01/01 02:11:11;;;;;;;39.50;17.00;;;10.20;99.90;;;;;;6153587;23;20450;-86
2022/01/01 02:13:49;;;;;;;43.00;16.03;;;10.10;99.90;;;;;;6154698;23;20202;-85
2022/01/01 02:18:59;;;;;;;45.07;17.27;;;10.20;99.90;;;;;;6147001;23;20210;-86
2022/01/01 02:21:28;;;;;;;53.97;17.53;;;10.20;99.90;;;;;;6149389;23;20176;-83
2022/01/01 02:23:58;;;;;;;57.03;16.67;;;10.20;99.90;;;;;;6148869;23;20178;-82
2022/01/01 02:26:30;;;;;;;50.03;16.40;;;10.20;99.90;;;;;;6148137;23;20520;-83
2022/01/01 02:28:59;;;;;;;70.50;19.17;;;10.20;99.90;;;;;;6148140;23;20167;-81
2022/01/01 02:31:26;;;;;;;68.17;19.00;;;10.20;99.90;;;;;;6147825;23;20181;-82
2022/01/01 02:33:53;;;;;;;62.13;17.67;;;10.30;99.90;;;;;;6147919;23;20553;-81
2022/01/01 02:36:32;;;;;;;67.80;19.80;;;10.30;99.90;;;;;;6148033;23;20176;-82
2022/01/01 02:38:59;;;;;;;67.27;19.47;;;10.30;99.90;;;;;;6147735;23;20167;-80
2022/01/01 02:41:27;;;;;;;66.37;22.17;;;10.30;99.90;;;;;;6147111;23;20195;-80
2022/01/01 02:43:54;;;;;;;74.23;21.60;;;10.30;99.90;;;;;;6147322;23;20230;-80
2022/01/01 02:46:21;;;;;;;47.27;18.73;;;10.30;99.90;;;;;;6148333;23;20178;-81
2022/01/01 02:48:48;;;;;;;51.47;18.47;;;10.40;99.90;;;;;;6147295;23;20175;-80
2022/01/01 02:51:14;;;;;;;49.80;17.10;;;10.40;99.90;;;;;;6147466;23;20669;-83
2022/01/01 02:53:46;;;;;;;42.50;17.90;;;10.40;99.90;;;;;;6147841;23;20441;-82
2022/01/01 02:56:13;;;;;;;49.37;19.63;;;10.40;99.90;;;;;;6148868;23;20498;-82
2022/01/01 02:58:40;;;;;;;42.40;18.37;;;10.40;99.90;;;;;;6147445;23;20186;-83
2022/01/01 03:01:07;;;;;;;53.73;19.93;;;10.40;99.90;;;;;;6147477;23;20191;-82
2022/01/01 03:03:34;;;;;;;48.60;19.60;;;10.30;99.90;;;;;;6148974;23;20197;-82
2022/01/01 03:06:00;;;;;;;34.97;18.97;;;10.30;99.90;;;;;;6148964;23;20736;-81
2022/01/01 03:08:27;;;;;;;45.70;20.60;;;10.30;99.90;;;;;;6148382;23;20178;-80
2022/01/01 03:10:55;;;;;;;49.03;20.17;;;10.30;99.90;;;;;;6147767;23;20171;-82
2022/01/01 03:13:22;;;;;;;45.20;19.13;;;10.30;99.90;;;;;;6148116;23;20234;-85
2022/01/01 03:15:49;;;;;;;43.17;19.27;;;10.30;99.90;;;;;;6149742;23;20182;-82
2022/01/01 03:18:16;;;;;;;35.67;17.73;;;10.30;99.90;;;;;;6149742;23;20176;-83
2022/01/01 03:20:44;;;;;;;43.03;18.10;;;10.20;99.90;;;;;;6148787;23;20208;-82
2022/01/01 03:23:11;;;;;;;35.60;17.27;;;10.20;99.90;;;;;;6149273;23;20206;-80
2022/01/01 03:25:38;;;;;;;43.07;17.60;;;10.20;99.90;;;;;;6149442;23;20179;-84
2022/01/01 03:28:07;;;;;;;31.70;14.93;;;10.30;99.90;;;;;;6149065;23;20202;-83
2022/01/01 03:30:34;;;;;;;40.70;16.83;;;10.30;99.90;;;;;;6148247;23;20287;-82
2022/01/01 03:33:01;;;;;;;41.47;15.53;;;10.30;99.90;;;;;;6149379;23;20195;-80
2022/01/01 03:35:27;;;;;;;44.57;14.77;;;10.30;99.90;;;;;;6150380;23;20440;-84
2022/01/01 03:37:54;;;;;;;42.83;13.27;;;10.30;99.90;;;;;;6150198;23;20175;-85
2022/01/01 03:40:21;;;;;;;39.87;14.30;;;10.30;99.90;;;;;;6150572;23;20871;-84
2022/01/01 03:42:48;;;;;;;52.20;14.57;;;10.30;99.90;;;;;;6151110;23;20171;-85
2022/01/01 03:45:17;;;;;;;56.53;16.07;;;10.40;99.90;;;;;;6151019;23;20179;-83
2022/01/01 03:47:43;;;;;;;39.57;14.47;;;10.40;99.90;;;;;;6151274;23;20179;-84
2022/01/01 03:50:11;;;;;;;42.37;14.83;;;10.40;99.90;;;;;;6151716;23;20171;-83
2022/01/01 03:52:42;;;;;;;49.80;16.47;;;10.40;99.90;;;;;;6148396;23;20179;-85
2022/01/01 03:55:10;;;;;;;49.67;17.07;;;10.40;99.90;;;;;;6147397;23;20172;-82
2022/01/01 03:57:36;;;;;;;49.93;16.17;;;10.50;99.90;;;;;;6147710;23;20176;-83
2022/01/01 04:00:05;;;;;;;55.87;18.20;;;10.50;99.90;;;;;;6147708;23;20202;-82
2022/01/01 04:02:34;;;;;;;52.67;19.53;;;10.60;99.90;;;;;;6146877;23;20183;-80
2022/01/01 04:05:01;;;;;;;47.83;19.87;;;10.70;99.90;;;;;;6146656;23;20175;-81
2022/01/01 04:07:27;;;;;;;61.87;21.13;;;10.70;99.90;;;;;;6149400;23;20176;-82
2022/01/01 04:09:54;;;;;;;53.03;21.53;;;10.70;99.90;;;;;;6149247;23;20187;-80
2022/01/01 04:12:23;;;;;;;50.63;20.17;;;10.70;99.90;;;;;;6150642;23;20175;-82
2022/01/01 04:14:50;;;;;;;46.00;18.33;;;10.80;99.90;;;;;;6151670;23;20202;-86
2022/01/01 04:17:17;;;;;;;51.07;19.33;;;10.80;99.90;;;;;;6149413;23;20179;-82
2022/01/01 04:19:45;;;;;;;56.37;19.13;;;10.80;99.90;;;;;;6149638;23;20219;-81
2022/01/01 04:22:15;;;;;;;50.70;17.93;;;10.90;99.90;;;;;;6149135;23;20175;-82
2022/01/01 04:24:42;;;;;;;52.80;19.33;;;10.90;99.90;;;;;;6150011;23;20534;-79
2022/01/01 04:27:11;;;;;;;48.07;18.23;;;10.90;99.90;;;;;;6149702;23;20171;-81
2022/01/01 04:29:38;;;;;;;47.10;17.70;;;10.80;99.90;;;;;;6149901;23;20168;-82
2022/01/01 04:32:05;;;;;;;47.97;18.40;;;10.80;99.90;;;;;;6149697;23;20171;-83
2022/01/01 04:34:32;;;;;;;42.40;18.07;;;10.80;99.90;;;;;;6149634;23;20191;-80
2022/01/01 04:37:03;;;;;;;42.30;18.50;;;10.80;99.90;;;;;;6150502;23;20171;-84
2022/01/01 04:39:30;;;;;;;50.40;19.00;;;10.80;99.90;;;;;;6152075;23;20422;-82
2022/01/01 04:41:57;;;;;;;49.10;20.17;;;10.80;99.90;;;;;;6151885;23;20199;-86
2022/01/01 04:44:23;;;;;;;43.20;18.83;;;10.90;99.90;;;;;;6150757;23;20313;-84
2022/01/01 04:46:50;;;;;;;48.23;18.80;;;10.90;99.90;;;;;;6150770;23;20179;-83
2022/01/01 04:49:17;;;;;;;40.53;17.83;;;10.90;99.90;;;;;;6149946;23;20180;-86
2022/01/01 04:51:44;;;;;;;48.53;18.73;;;10.90;99.90;;;;;;6149961;23;20179;-81
2022/01/01 04:54:15;;;;;;;44.77;18.73;;;10.80;99.90;;;;;;6149256;23;20179;-80
2022/01/01 04:56:44;;;;;;;43.83;19.07;;;10.80;99.90;;;;;;6148570;23;20175;-82
2022/01/01 04:59:11;;;;;;;43.70;18.17;;;10.80;99.90;;;;;;6148710;23;20586;-83
2022/01/01 05:01:38;;;;;;;46.13;18.63;;;10.80;99.90;;;;;;6147632;23;20230;-83
2022/01/01 05:04:05;;;;;;;39.03;17.07;;;10.90;99.90;;;;;;6147867;23;20176;-81
2022/01/01 05:06:32;;;;;;;48.77;18.37;;;10.80;99.90;;;;;;6147519;23;20172;-83
2022/01/01 05:09:00;;;;;;;45.87;17.73;;;10.80;99.90;;;;;;6148039;23;20433;-81
2022/01/01 05:11:28;;;;;;;44.10;18.60;;;10.80;99.90;;;;;;6148530;23;20171;-81
2022/01/01 05:13:55;;;;;;;50.10;19.10;;;10.80;99.90;;;;;;6147989;23;20199;-81
2022/01/01 05:16:22;;;;;;;48.90;19.43;;;10.80;99.90;;;;;;6147396;23;20501;-82
2022/01/01 05:18:49;;;;;;;40.40;19.33;;;10.90;99.90;;;;;;6149275;23;20175;-81
2022/01/01 05:21:16;;;;;;;45.87;18.43;;;10.90;99.90;;;;;;6147589;23;20191;-82
2022/01/01 05:23:43;;;;;;;48.53;18.87;;;10.90;99.90;;;;;;6146629;23;20171;-81
2022/01/01 05:26:10;;;;;;;46.63;18.53;;;10.90;99.90;;;;;;6147058;23;20175;-81
2022/01/01 05:28:38;;;;;;;43.80;17.40;;;10.90;99.90;;;;;;6148227;23;20179;-81
2022/01/01 05:31:05;;;;;;;51.97;17.40;;;10.90;99.90;;;;;;6147457;23;20175;-81
2022/01/01 05:33:32;;;;;;;42.13;17.97;;;10.90;99.90;;;;;;6147983;23;20176;-80
2022/01/01 05:35:58;;;;;;;49.37;18.17;;;11.00;99.90;;;;;;6147867;23;20176;-82
2022/01/01 05:38:25;;;;;;;36.27;16.77;;;11.00;99.90;;;;;;6148566;23;20191;-82
2022/01/01 05:40:52;;;;;;;37.03;17.27;;;11.00;99.90;;;;;;6148050;23;20789;-82
2022/01/01 05:43:19;;;;;;;41.73;18.00;;;11.00;99.90;;;;;;6148684;23;20178;-83
2022/01/01 05:45:47;;;;;;;30.33;15.37;;;10.90;99.90;;;;;;6148628;23;20184;-82
2022/01/01 05:48:14;;;;;;;39.07;16.00;;;10.90;99.90;;;;;;6207678;23;20178;-80
2022/01/01 05:50:41;;;;;;;35.60;14.57;;;10.90;99.90;;;;;;6208238;23;20174;-81
2022/01/01 05:53:08;;;;;;;28.33;13.97;;;11.00;99.90;;;;;;6207670;23;20178;-80
2022/01/01 05:55:35;;;;;;;33.00;14.17;;;11.00;99.90;;;;;;6207605;23;20178;-81
2022/01/01 05:58:02;;;;;;;36.13;13.43;;;10.90;99.90;;;;;;6208271;23;20178;-81
2022/01/01 06:00:28;;;;;;;30.43;13.63;;;11.00;99.90;;;;;;6208218;23;20204;-80
2022/01/01 06:02:58;;;;;;;34.77;15.07;;;11.00;99.90;;;;;;6208068;23;20181;-82
2022/01/01 06:05:26;;;;;;;30.70;14.07;;;11.10;99.90;;;;;;6207854;23;20828;-81
2022/01/01 06:07:53;;;;;;;33.97;13.27;;;11.10;99.90;;;;;;6208312;23;20209;-84
2022/01/01 06:10:20;;;;;;;25.13;12.10;;;11.10;99.90;;;;;;6208681;23;20182;-83
2022/01/01 06:12:47;;;;;;;34.47;12.23;;;11.10;99.90;;;;;;6208380;23;20184;-82
2022/01/01 06:15:14;;;;;;;26.77;12.63;;;11.10;99.90;;;;;;6182644;23;20452;-81
2022/01/01 06:17:41;;;;;;;39.20;14.50;;;11.10;99.90;;;;;;6177915;23;20175;-82
2022/01/01 06:20:10;;;;;;;31.20;13.67;;;11.20;99.90;;;;;;6179222;23;20175;-80
2022/01/01 06:22:38;;;;;;;29.33;12.33;;;11.20;99.90;;;;;;6177347;23;20623;-81
2022/01/01 06:25:06;;;;;;;29.90;12.73;;;11.20;99.90;;;;;;6178554;23;20278;-82
2022/01/01 06:27:33;;;;;;;26.67;13.37;;;11.20;99.90;;;;;;6177943;23;20262;-81
2022/01/01 06:29:59;;;;;;;28.37;12.57;;;11.30;99.90;;;;;;6178636;23;20680;-80
2022/01/01 06:32:26;;;;;;;32.87;13.40;;;11.30;99.90;;;;;;6178246;23;20182;-83
2022/01/01 06:34:53;;;;;;;30.27;12.93;;;11.30;99.90;;;;;;6178573;23;20175;-81
2022/01/01 06:37:21;;;;;;;25.00;12.80;;;11.40;99.90;;;;;;6177833;23;20443;-81
2022/01/01 06:39:49;;;;;;;31.70;12.63;;;11.40;99.90;;;;;;6179003;23;20183;-83
2022/01/01 06:42:16;;;;;;;35.77;14.13;;;11.40;99.90;;;;;;6177957;23;20525;-82
2022/01/01 06:44:44;;;;;;;31.67;12.50;;;11.40;99.90;;;;;;6178539;23;20178;-82
2022/01/01 06:47:11;;;;;;;28.90;12.73;;;11.40;99.90;;;;;;6178861;23;20203;-82
2022/01/01 06:49:38;;;;;;;26.87;11.90;;;11.50;99.90;;;;;;6179502;23;20173;-80
2022/01/01 06:52:05;;;;;;;24.47;11.83;;;11.50;99.90;;;;;;6180298;23;20803;-80
2022/01/01 06:54:34;;;;;;;23.33;10.93;;;11.60;99.90;;;;;;6178316;23;20571;-83
2022/01/01 06:57:00;;;;;;;25.10;11.53;;;11.70;99.90;;;;;;6177208;23;20175;-79
2022/01/01 06:59:27;;;;;;;19.47;10.67;;;11.70;99.90;;;;;;6177358;23;20180;-81
2022/01/01 07:01:54;;;;;;;24.40;11.77;;;11.70;99.90;;;;;;6177859;23;20194;-80
2022/01/01 07:04:20;;;;;;;26.30;11.37;;;11.70;99.90;;;;;;6177230;23;20175;-79
2022/01/01 07:06:48;;;;;;;26.40;10.33;;;11.70;99.90;;;;;;6178101;23;20807;-82
2022/01/01 07:09:15;;;;;;;20.33;10.90;;;11.70;99.90;;;;;;6177963;23;20258;-81
2022/01/01 07:11:43;;;;;;;27.47;11.50;;;11.80;99.90;;;;;;6179216;23;20177;-82
2022/01/01 07:14:11;;;;;;;23.57;10.63;;;11.80;99.90;;;;;;6178181;23;20199;-81
2022/01/01 07:16:38;;;;;;;22.40;10.07;;;11.80;99.90;;;;;;6178195;23;20445;-81
2022/01/01 07:19:05;;;;;;;24.97;10.73;;;11.90;99.90;;;;;;6177905;23;20242;-79
2022/01/01 07:21:31;;;;;;;26.10;10.33;;;11.90;99.90;;;;;;6177708;23;20194;-80
2022/01/01 07:23:59;;;;;;;19.53;10.33;;;11.80;99.90;;;;;;6178690;23;20179;-81
2022/01/01 07:26:25;;;;;;;24.07;9.77;;;11.90;99.90;;;;;;6178807;23;20179;-85
2022/01/01 07:28:54;;;;;;;21.33;9.33;;;11.90;99.90;;;;;;6178454;23;20202;-81
2022/01/01 07:31:21;;;;;;;17.83;9.10;;;12.00;99.90;;;;;;6179595;23;20175;-81
2022/01/01 07:33:47;;;;;;;20.00;9.87;;;12.00;99.90;;;;;;6179007;23;20167;-80
2022/01/01 07:36:14;;;;;;;22.63;9.10;;;12.00;99.90;;;;;;6178339;23;20857;-80
2022/01/01 07:38:41;;;;;;;21.13;9.60;;;12.00;99.90;;;;;;6177901;23;20178;-82
2022/01/01 07:41:08;;;;;;;23.40;8.33;;;12.10;99.90;;;;;;6178110;23;20202;-84
2022/01/01 07:43:34;;;;;;;17.17;10.03;;;12.10;99.90;;;;;;6180606;23;20200;-82
2022/01/01 07:46:03;;;;;;;19.00;10.27;;;12.00;99.90;;;;;;6180477;23;20178;-81
2022/01/01 07:48:29;;;;;;;23.53;9.60;;;12.10;99.90;;;;;;6181373;23;20166;-82
2022/01/01 07:50:56;;;;;;;16.50;8.77;;;12.10;99.90;;;;;;6180563;23;20896;-83
2022/01/01 07:53:23;;;;;;;21.43;8.80;;;12.10;99.90;;;;;;6181191;23;20178;-81
2022/01/01 07:55:49;;;;;;;23.27;8.77;;;12.10;99.90;;;;;;6182236;23;20261;-84
2022/01/01 07:58:16;;;;;;;16.23;8.77;;;12.10;99.90;;;;;;6180856;23;20176;-83
2022/01/01 08:00:43;;;;;;;16.80;8.20;;;12.10;99.90;;;;;;6181382;23;20181;-84
2022/01/01 08:03:12;;;;;;;19.77;7.77;;;12.20;99.90;;;;;;6180954;23;20181;-83
2022/01/01 08:05:39;;;;;;;14.63;7.57;;;12.30;99.90;;;;;;6180216;23;20178;-85
2022/01/01 08:08:06;;;;;;;14.07;7.77;;;12.30;99.90;;;;;;6181140;23;20467;-83
2022/01/01 08:10:34;;;;;;;15.97;7.77;;;12.30;99.90;;;;;;6180926;23;20171;-81
2022/01/01 08:13:01;;;;;;;16.87;7.43;;;12.30;99.90;;;;;;6181006;23;20496;-81
2022/01/01 08:15:28;;;;;;;14.77;7.10;;;12.40;99.90;;;;;;6180081;23;20195;-83
2022/01/01 08:17:56;;;;;;;12.53;6.53;;;12.40;99.90;;;;;;6180357;23;20238;-83
2022/01/01 08:20:24;;;;;;;15.87;7.60;;;12.40;99.90;;;;;;6180304;23;20171;-82
2022/01/01 08:22:51;;;;;;;14.67;6.10;;;12.40;99.90;;;;;;6180494;23;20654;-79
2022/01/01 08:25:20;;;;;;;10.00;5.57;;;12.40;99.90;;;;;;6180733;23;20177;-83
2022/01/01 08:27:47;;;;;;;14.80;7.47;;;12.50;99.90;;;;;;6181410;23;20190;-82
2022/01/01 08:30:14;;;;;;;16.77;6.67;;;12.40;99.90;;;;;;6182448;23;20174;-80
2022/01/01 08:32:41;;;;;;;12.20;7.20;;;12.50;99.90;;;;;;6179858;23;20630;-84
2022/01/01 08:35:09;;;;;;;13.50;6.47;;;12.60;99.90;;;;;;6213758;22;20212;-81
2022/01/01 08:37:37;;;;;;;13.00;6.43;;;12.60;99.90;;;;;;6240371;23;20169;-82
2022/01/01 08:40:05;;;;;;;15.30;6.23;;;12.60;99.90;;;;;;6255799;23;20174;-80
2022/01/01 08:42:32;;;;;;;13.50;6.07;;;12.60;99.90;;;;;;6249086;23;20203;-82
2022/01/01 08:44:59;;;;;;;14.50;5.80;;;12.60;99.90;;;;;;6245285;23;20252;-85
2022/01/01 08:47:26;;;;;;;12.90;5.67;;;12.60;99.90;;;;;;6244858;23;20169;-82
2022/01/01 08:49:54;;;;;;;10.30;5.47;;;12.60;99.90;;;;;;6216396;23;20209;-86
2022/01/01 08:52:22;;;;;;;9.33;5.40;;;12.60;99.90;;;;;;6189035;23;20162;-81
2022/01/01 08:54:55;;;;;;;13.60;6.17;;;12.60;99.90;;;;;;6213304;23;20174;-83
2022/01/01 08:57:22;;;;;;;9.00;5.53;;;12.60;99.90;;;;;;6211800;23;20173;-82
2022/01/01 08:59:48;;;;;;;9.33;5.40;;;12.60;99.90;;;;;;6211639;23;20201;-84
2022/01/01 09:02:15;;;;;;;9.87;5.43;;;12.60;99.90;;;;;;6211418;23;20197;-82
2022/01/01 09:04:42;;;;;;;9.70;5.43;;;12.70;99.90;;;;;;6211740;23;20174;-85
2022/01/01 09:10:34;;;;;;;7.03;4.30;;;12.80;99.90;;;;;;6195871;23;20582;-84
2022/01/01 09:13:01;;;;;;;9.10;4.50;;;12.80;99.90;;;;;;6212379;23;20173;-86
2022/01/01 09:15:28;;;;;;;9.77;5.30;;;12.80;99.90;;;;;;6183003;23;20190;-84
2022/01/01 09:17:54;;;;;;;9.27;5.03;;;12.80;99.90;;;;;;6180886;23;20766;-84
2022/01/01 09:20:21;;;;;;;10.40;5.00;;;12.80;99.90;;;;;;6177688;23;20257;-81
2022/01/01 09:22:48;;;;;;;13.10;4.70;;;12.80;99.90;;;;;;6178478;23;20833;-81
2022/01/01 09:25:15;;;;;;;8.77;5.03;;;12.80;99.90;;;;;;6178333;23;20167;-81
2022/01/01 09:27:43;;;;;;;10.23;5.07;;;12.80;99.90;;;;;;6179931;23;20253;-83
2022/01/01 09:30:11;;;;;;;12.07;5.50;;;12.80;99.90;;;;;;6181306;23;20235;-81
2022/01/01 09:32:38;;;;;;;10.37;5.83;;;12.80;99.90;;;;;;6178474;23;20175;-82
2022/01/01 09:35:06;;;;;;;12.47;6.30;;;12.80;99.90;;;;;;6178162;23;20171;-82
2022/01/01 09:37:33;;;;;;;10.80;5.77;;;12.80;99.90;;;;;;6177903;23;20229;-82
2022/01/01 09:40:00;;;;;;;14.83;7.10;;;12.70;99.90;;;;;;6178639;23;20228;-83
2022/01/01 09:42:28;;;;;;;11.47;7.13;;;12.80;99.90;;;;;;6176543;23;20213;-81
2022/01/01 09:44:58;;;;;;;14.37;7.53;;;12.70;99.90;;;;;;6179883;23;20182;-83
2022/01/01 09:47:26;;;;;;;13.13;6.87;;;12.70;99.90;;;;;;6180083;23;20193;-81
2022/01/01 09:49:53;;;;;;;13.03;8.00;;;12.70;99.90;;;;;;6178479;23;20353;-81
2022/01/01 09:52:20;;;;;;;12.03;7.47;;;12.70;99.90;;;;;;6178047;23;20183;-82
2022/01/01 09:54:47;;;;;;;18.27;8.47;;;12.70;99.90;;;;;;6178344;23;20163;-82
2022/01/01 09:57:14;;;;;;;13.07;8.73;;;12.70;99.90;;;;;;6179639;23;20193;-83
2022/01/01 09:59:41;;;;;;;18.57;8.87;;;12.70;99.90;;;;;;6178622;23;20178;-83
2022/01/01 10:02:10;;;;;;;16.83;8.50;;;12.70;99.90;;;;;;6177906;23;20205;-80
2022/01/01 10:04:44;;;;;;;16.23;9.23;;;12.60;99.90;;;;;;6177376;23;20202;-81
2022/01/01 10:07:12;;;;;;;19.17;8.67;;;12.70;99.90;;;;;;6177388;23;20170;-81
2022/01/01 10:09:38;;;;;;;14.20;7.97;;;12.70;99.90;;;;;;6177129;23;20171;-80
2022/01/01 10:12:07;;;;;;;11.90;9.77;;;12.70;99.90;;;;;;6178287;23;20177;-81
2022/01/01 10:14:36;;;;;;;19.17;13.40;;;12.70;99.90;;;;;;6176832;23;20519;-83
2022/01/01 10:17:16;;;;;;;16.60;11.07;;;12.70;99.90;;;;;;6177580;23;20179;-83
2022/01/01 10:19:44;;;;;;;19.20;10.27;;;12.70;99.90;;;;;;6178712;23;20167;-81
2022/01/01 10:22:13;;;;;;;18.13;10.03;;;12.70;99.90;;;;;;6177640;23;20255;-82
2022/01/01 10:27:44;;;;;;;17.40;9.93;;;12.70;99.90;;;;;;6144000;23;20178;-82
2022/01/01 10:30:18;;;;;;;15.67;9.67;;;12.80;99.90;;;;;;6177963;23;20167;-80
2022/01/01 10:33:00;;;;;;;18.03;10.70;;;12.80;99.90;;;;;;6177522;23;20167;-83
2022/01/01 10:35:27;;;;;;;17.87;10.33;;;12.80;99.90;;;;;;6176690;23;20171;-80
2022/01/01 10:37:54;;;;;;;16.83;10.83;;;12.80;99.90;;;;;;6176591;23;20182;-82
2022/01/01 10:40:26;;;;;;;18.73;11.97;;;12.90;99.90;;;;;;6177229;23;20171;-83
2022/01/01 10:42:53;;;;;;;22.70;11.70;;;13.00;99.90;;;;;;6176685;23;20186;-83
2022/01/01 10:45:30;;;;;;;16.17;10.67;;;13.00;99.90;;;;;;6177265;23;20183;-82
2022/01/01 10:48:16;;;;;;;15.17;10.87;;;13.00;99.90;;;;;;6176716;23;20175;-82
2022/01/01 10:50:44;;;;;;;16.60;11.17;;;13.00;99.90;;;;;;6177077;23;20245;-82
2022/01/01 10:53:12;;;;;;;19.87;11.47;;;13.00;99.90;;;;;;6178684;23;20179;-83
2022/01/01 10:55:43;;;;;;;16.07;10.37;;;13.10;99.90;;;;;;6177185;23;20175;-81
2022/01/01 10:58:16;;;;;;;17.93;10.80;;;13.20;99.90;;;;;;6177808;23;20194;-81
2022/01/01 11:00:44;;;;;;;19.17;10.73;;;13.20;99.90;;;;;;6177598;23;20170;-82
2022/01/01 11:03:16;;;;;;;15.23;10.27;;;13.20;99.90;;;;;;6177456;23;20206;-79
2022/01/01 11:05:44;;;;;;;18.33;11.63;;;13.20;99.90;;;;;;6176389;23;20174;-81
2022/01/01 11:08:11;;;;;;;17.30;11.80;;;13.30;99.90;;;;;;6176402;23;20179;-80
2022/01/01 11:10:40;;;;;;;18.07;12.37;;;13.40;99.90;;;;;;6176574;23;20182;-78
2022/01/01 11:13:09;;;;;;;17.30;12.33;;;13.50;99.90;;;;;;6176628;23;20690;-81
2022/01/01 11:15:36;;;;;;;18.07;12.30;;;13.50;99.90;;;;;;6175790;23;20167;-79
2022/01/01 11:18:03;;;;;;;18.60;12.33;;;13.60;99.90;;;;;;6175387;23;20186;-81
2022/01/01 11:20:34;;;;;;;16.93;12.43;;;13.70;99.90;;;;;;6175232;23;20175;-79
2022/01/01 11:23:06;;;;;;;21.73;13.13;;;13.70;99.90;;;;;;6176613;23;20190;-81
2022/01/01 11:25:34;;;;;;;21.00;13.63;;;13.80;99.90;;;;;;6175909;23;20175;-80
2022/01/01 11:28:02;;;;;;;22.37;13.77;;;13.80;99.90;;;;;;6176517;23;20178;-80
2022/01/01 11:30:30;;;;;;;23.63;14.93;;;13.80;99.90;;;;;;6175204;23;20174;-79
2022/01/01 11:33:03;;;;;;;21.90;14.90;;;13.80;99.90;;;;;;6174976;23;20202;-79
2022/01/01 11:35:33;;;;;;;25.97;16.70;;;13.80;99.90;;;;;;6176293;23;20257;-79
2022/01/01 11:38:03;;;;;;;25.83;17.60;;;13.80;99.90;;;;;;6176583;23;20174;-79
2022/01/01 11:40:34;;;;;;;26.40;16.67;;;13.80;99.90;;;;;;6174767;23;20512;-79
2022/01/01 11:43:01;;;;;;;26.53;17.50;;;13.80;99.90;;;;;;6177084;23;20186;-79
2022/01/01 11:45:46;;;;;;;25.73;16.93;;;13.80;99.90;;;;;;6176113;23;20178;-81
2022/01/01 11:48:29;;;;;;;27.07;17.53;;;13.70;99.90;;;;;;6176086;23;20214;-79
2022/01/01 11:50:58;;;;;;;26.00;17.57;;;13.70;99.90;;;;;;6176632;23;20182;-82
2022/01/01 11:53:29;;;;;;;27.27;17.87;;;13.70;99.90;;;;;;6176051;23;20181;-79
2022/01/01 11:56:07;;;;;;;28.70;18.57;;;13.70;99.90;;;;;;6175644;23;20171;-80
2022/01/01 11:58:47;;;;;;;27.17;18.80;;;13.60;99.90;;;;;;6175513;23;20525;-79
2022/01/01 12:01:16;;;;;;;25.63;18.47;;;13.60;99.90;;;;;;6175302;23;20170;-79
2022/01/01 12:03:50;;;;;;;26.83;19.07;;;13.60;99.90;;;;;;6175413;23;20276;-80
2022/01/01 12:06:19;;;;;;;27.63;19.17;;;13.50;99.90;;;;;;6175155;23;20174;-79
2022/01/01 12:08:48;;;;;;;28.33;18.63;;;13.60;99.90;;;;;;6174623;23;20194;-78
2022/01/01 12:11:30;;;;;;;27.53;19.27;;;13.50;99.90;;;;;;6174380;23;20213;-79
2022/01/01 12:13:58;;;;;;;26.13;17.50;;;13.50;99.90;;;;;;6175812;23;20202;-79
2022/01/01 12:16:26;;;;;;;29.17;19.10;;;13.50;99.90;;;;;;6175208;23;20175;-80
2022/01/01 12:19:02;;;;;;;29.27;19.53;;;13.50;99.90;;;;;;6176754;23;20186;-79
2022/01/01 12:21:39;;;;;;;30.93;20.07;;;13.50;99.90;;;;;;6175539;23;20173;-79
2022/01/01 12:24:08;;;;;;;29.60;20.40;;;13.40;99.90;;;;;;6175385;23;20187;-78
2022/01/01 12:26:35;;;;;;;30.13;20.07;;;13.40;99.90;;;;;;6175253;23;20182;-79
2022/01/01 12:29:03;;;;;;;27.53;19.57;;;13.40;99.90;;;;;;6177548;23;20591;-78
2022/01/01 12:31:30;;;;;;;29.33;19.83;;;13.40;99.90;;;;;;6177596;23;20173;-79
2022/01/01 12:33:59;;;;;;;28.93;19.73;;;13.40;99.90;;;;;;6177592;23;20177;-80
2022/01/01 12:36:28;;;;;;;28.80;20.07;;;13.40;99.90;;;;;;6176510;23;20181;-81
2022/01/01 12:38:58;;;;;;;29.90;19.10;;;13.40;99.90;;;;;;6178313;23;20175;-80
2022/01/01 12:41:34;;;;;;;25.67;17.70;;;13.40;99.90;;;;;;6177331;23;20178;-81
2022/01/01 12:44:02;;;;;;;27.07;19.10;;;13.40;99.90;;;;;;6176571;23;20714;-80
2022/01/01 12:46:31;;;;;;;25.90;18.00;;;13.40;99.90;;;;;;6177446;23;20233;-79
2022/01/01 12:49:00;;;;;;;23.83;17.10;;;13.40;99.90;;;;;;6176994;23;20681;-80
2022/01/01 12:51:29;;;;;;;23.93;16.47;;;13.40;99.90;;;;;;6176975;23;20174;-79
2022/01/01 12:53:59;;;;;;;25.97;17.00;;;13.50;99.90;;;;;;6177271;23;20174;-81
2022/01/01 12:56:28;;;;;;;22.33;16.80;;;13.40;99.90;;;;;;6177211;23;20178;-78
2022/01/01 12:58:57;;;;;;;19.47;14.30;;;13.50;99.90;;;;;;6177289;23;20194;-80
2022/01/01 13:01:25;;;;;;;19.57;13.47;;;13.50;99.90;;;;;;6176953;23;20193;-80
2022/01/01 13:03:53;;;;;;;19.17;14.20;;;13.50;99.90;;;;;;6176092;23;20207;-80